Terminal Aerodrome Forecast
Issued by NWS Sioux Falls, SD

Home | Current Version | Previous Version | Graphics & Text | Print | Product List | Glossary On
Versions: 1 2 3 4 5 6 7 8 9 10 11 12 13 14 15 16 17 18 19 20 21 22 23 24 25 26 27 28 29 30 31 32
000
FTUS43 KFSD 310534
TAFSUX
TAF
KSUX 310534Z 3106/0106 18012KT P6SM TSRA BKN090CB
      TEMPO 3107/3108 28020G35KT
     FM310800 27007KT P6SM OVC050
     FM311400 31008KT P6SM OVC120
     FM312100 29007KT P6SM SCT250
     FM010300 VRB03KT P6SM FEW250=

USA.gov is the U.S. government's official web portal to all federal, state and local government web resources and services.